Time;durP1;ratioP1;P1;durP2;ratioP2;P2;SDS_P1;SDS_P2;PMS_P1;PMS_P2;Temp;Humidity;BMP_temperature;BMP_pressure;BME280_temperature;BME280_humidity;BME280_pressure;Samples;Min_cycle;Max_cycle;Signal;HPM_P1;HPM_P2
2021/07/06 00:01:03;;;;;;;;;;;24.40;48.20;;;;;;1490857;77;746;-72
2021/07/06 00:03:04;;;;;;;;;;;24.50;48.40;;;;;;1462655;78;1634;-71
2021/07/06 00:05:07;;;;;;;;;;;24.50;48.40;;;;;;1462464;78;764;-73
2021/07/06 00:07:08;;;;;;;;;;;24.40;48.40;;;;;;1492469;76;1937;-75
2021/07/06 00:09:10;;;;;;;;;;;24.50;48.50;;;;;;1485319;77;698;-73
2021/07/06 00:11:12;;;;;;;;;;;24.50;48.40;;;;;;1499470;77;753;-73
2021/07/06 00:13:14;;;;;;;;;;;24.50;48.60;;;;;;1488113;77;729;-73
2021/07/06 00:15:16;;;;;;;;;;;24.40;48.50;;;;;;1494607;77;727;-72
2021/07/06 00:17:19;;;;;;;;;;;24.40;48.60;;;;;;1490243;78;1148;-73
2021/07/06 00:19:21;;;;;;;;;;;24.40;48.50;;;;;;1488982;77;872;-73
2021/07/06 00:21:23;;;;;;;;;;;24.50;48.70;;;;;;1488051;77;742;-73
2021/07/06 00:23:24;;;;;;;;;;;24.50;48.60;;;;;;1487788;77;811;-73
2021/07/06 00:25:26;;;;;;;;;;;24.50;48.70;;;;;;1485997;77;804;-72
2021/07/06 00:27:28;;;;;;;;;;;24.40;48.40;;;;;;1482597;77;2093;-71
2021/07/06 00:29:30;;;;;;;;;;;24.50;48.40;;;;;;1484740;77;760;-72
2021/07/06 00:31:32;;;;;;;;;;;24.40;48.20;;;;;;1486878;77;746;-72
2021/07/06 00:33:34;;;;;;;;;;;24.50;48.40;;;;;;1493419;77;741;-70
2021/07/06 00:35:36;;;;;;;;;;;24.50;48.60;;;;;;1489122;77;753;-71
2021/07/06 00:37:38;;;;;;;;;;;24.50;48.80;;;;;;1486301;77;1098;-71
2021/07/06 00:39:40;;;;;;;;;;;24.40;48.70;;;;;;1484756;77;810;-71
2021/07/06 00:41:41;;;;;;;;;;;24.50;48.80;;;;;;1495250;77;736;-69
2021/07/06 00:43:43;;;;;;;;;;;24.40;48.60;;;;;;1490334;77;657;-71
2021/07/06 00:45:45;;;;;;;;;;;24.50;48.50;;;;;;1490058;77;797;-71
2021/07/06 00:47:47;;;;;;;;;;;24.50;48.40;;;;;;1501516;71;212762;-58
2021/07/06 00:49:49;;;;;;;;;;;24.60;48.40;;;;;;1556260;74;816;-58
2021/07/06 00:51:51;;;;;;;;;;;24.50;48.40;;;;;;1538714;74;1207;-59
2021/07/06 00:53:53;;;;;;;;;;;24.50;48.30;;;;;;1529294;76;779;-58
2021/07/06 00:55:56;;;;;;;;;;;24.50;48.30;;;;;;1528557;76;772;-58
2021/07/06 00:57:58;;;;;;;;;;;24.50;48.10;;;;;;1530346;76;801;-60
2021/07/06 01:00:00;;;;;;;;;;;24.50;48.10;;;;;;1544078;76;900;-58
2021/07/06 01:02:02;;;;;;;;;;;24.50;48.30;;;;;;1530687;76;1176;-58
2021/07/06 01:04:04;;;;;;;;;;;24.50;48.40;;;;;;1523244;76;683;-59
2021/07/06 01:06:06;;;;;;;;;;;24.50;48.40;;;;;;1529532;76;724;-59
2021/07/06 01:08:08;;;;;;;;;;;24.50;48.40;;;;;;1525423;76;1936;-59
2021/07/06 01:10:11;;;;;;;;;;;24.40;48.50;;;;;;1526082;76;792;-59
2021/07/06 01:12:12;;;;;;;;;;;24.50;48.50;;;;;;1527897;76;1146;-59
2021/07/06 01:14:16;;;;;;;;;;;24.50;48.20;;;;;;1538444;76;752;-60
2021/07/06 01:16:18;;;;;;;;;;;24.50;48.20;;;;;;1534353;76;764;-60
2021/07/06 01:18:20;;;;;;;;;;;24.40;48.10;;;;;;1531455;76;765;-59
2021/07/06 01:20:23;;;;;;;;;;;24.50;48.10;;;;;;1530750;76;756;-59
2021/07/06 01:22:26;;;;;;;;;;;24.50;48.00;;;;;;1530868;76;1150;-57
2021/07/06 01:24:28;;;;;;;;;;;24.50;47.80;;;;;;1528195;76;792;-60
2021/07/06 01:26:30;;;;;;;;;;;24.50;47.80;;;;;;1527728;76;716;-59
2021/07/06 01:28:33;;;;;;;;;;;24.50;47.80;;;;;;1529486;76;1949;-61
2021/07/06 01:30:34;;;;;;;;;;;24.50;47.70;;;;;;1530374;76;696;-60
2021/07/06 01:32:38;;;;;;;;;;;24.50;47.60;;;;;;1527886;76;1164;-59
2021/07/06 01:34:40;;;;;;;;;;;24.50;47.60;;;;;;1526860;76;777;-57
2021/07/06 01:36:42;;;;;;;;;;;24.50;47.50;;;;;;1522281;76;929;-56
2021/07/06 01:38:44;;;;;;;;;;;24.50;47.60;;;;;;1529456;76;745;-58
2021/07/06 01:40:45;;;;;;;;;;;24.50;47.60;;;;;;1541321;76;795;-58
2021/07/06 01:42:48;;;;;;;;;;;24.50;47.50;;;;;;1546651;76;1126;-60
2021/07/06 01:45:03;;;;;;;;;;;24.50;47.40;;;;;;1539189;76;712;-60
2021/07/06 01:47:05;;;;;;;;;;;24.50;47.40;;;;;;1539241;76;1939;-60
2021/07/06 01:49:08;;;;;;;;;;;24.50;47.40;;;;;;1539908;76;809;-58
2021/07/06 01:51:10;;;;;;;;;;;24.50;47.40;;;;;;1540562;76;1956;-59
2021/07/06 01:53:14;;;;;;;;;;;24.50;47.30;;;;;;1542223;76;840;-60
2021/07/06 01:55:17;;;;;;;;;;;24.50;47.30;;;;;;1537905;76;844;-58
2021/07/06 01:57:18;;;;;;;;;;;24.50;47.30;;;;;;1533340;76;753;-59
2021/07/06 01:59:21;;;;;;;;;;;24.50;47.30;;;;;;1543352;76;762;-59
2021/07/06 02:01:23;;;;;;;;;;;24.50;47.30;;;;;;1539691;76;1158;-58
2021/07/06 02:03:25;;;;;;;;;;;24.50;47.30;;;;;;1544346;76;801;-60
2021/07/06 02:05:28;;;;;;;;;;;24.50;47.30;;;;;;1538195;76;739;-59
2021/07/06 02:07:30;;;;;;;;;;;24.50;47.30;;;;;;1548575;76;1915;-58
2021/07/06 02:09:32;;;;;;;;;;;24.50;47.30;;;;;;1541135;76;770;-57
2021/07/06 02:11:34;;;;;;;;;;;24.50;47.30;;;;;;1539465;76;1191;-61
2021/07/06 02:13:36;;;;;;;;;;;24.50;47.50;;;;;;1547309;76;740;-59
2021/07/06 02:15:38;;;;;;;;;;;24.40;47.40;;;;;;1543912;76;794;-59
2021/07/06 02:17:39;;;;;;;;;;;24.50;47.50;;;;;;1546526;76;741;-60
2021/07/06 02:19:41;;;;;;;;;;;24.50;47.50;;;;;;1545998;76;786;-57
2021/07/06 02:21:43;;;;;;;;;;;24.40;47.40;;;;;;1530685;76;1124;-58
2021/07/06 02:23:47;;;;;;;;;;;24.50;47.40;;;;;;1541420;76;761;-59
2021/07/06 02:25:49;;;;;;;;;;;24.40;47.50;;;;;;1539886;76;1137;-58
2021/07/06 02:27:51;;;;;;;;;;;24.40;47.50;;;;;;1547588;76;1924;-59
2021/07/06 02:29:52;;;;;;;;;;;24.40;47.40;;;;;;1534210;76;766;-59
2021/07/06 02:31:54;;;;;;;;;;;24.40;47.30;;;;;;1541983;76;1136;-61
2021/07/06 02:33:56;;;;;;;;;;;24.50;47.30;;;;;;1545962;76;905;-59
2021/07/06 02:35:59;;;;;;;;;;;24.50;47.30;;;;;;1539797;76;691;-58
2021/07/06 02:38:01;;;;;;;;;;;24.40;47.20;;;;;;1541408;76;869;-59
2021/07/06 02:40:04;;;;;;;;;;;24.50;47.30;;;;;;1535155;76;717;-58
2021/07/06 02:42:06;;;;;;;;;;;24.50;47.30;;;;;;1542125;76;1860;-58
2021/07/06 02:44:08;;;;;;;;;;;24.40;47.10;;;;;;1536198;76;782;-60
2021/07/06 02:46:11;;;;;;;;;;;24.50;47.30;;;;;;1539703;76;701;-58
2021/07/06 02:48:12;;;;;;;;;;;24.50;47.30;;;;;;1538815;76;1920;-59
2021/07/06 02:50:15;;;;;;;;;;;24.50;47.30;;;;;;1538779;76;714;-60
2021/07/06 02:52:17;;;;;;;;;;;24.40;47.20;;;;;;1540918;76;1142;-58
2021/07/06 02:54:19;;;;;;;;;;;24.50;47.20;;;;;;1554160;76;741;-60
2021/07/06 02:56:21;;;;;;;;;;;24.50;47.30;;;;;;1543146;76;819;-60
2021/07/06 02:58:22;;;;;;;;;;;24.30;47.30;;;;;;1545499;76;686;-60
2021/07/06 03:00:25;;;;;;;;;;;24.40;47.50;;;;;;1533848;76;785;-60
2021/07/06 03:02:27;;;;;;;;;;;24.50;47.60;;;;;;1546144;76;1202;-60
2021/07/06 03:04:29;;;;;;;;;;;24.40;47.60;;;;;;1545937;76;799;-60
2021/07/06 03:06:31;;;;;;;;;;;24.40;47.60;;;;;;1542829;76;773;-60
2021/07/06 03:08:33;;;;;;;;;;;24.40;47.60;;;;;;1547393;76;1972;-60
2021/07/06 03:10:38;;;;;;;;;;;24.40;47.50;;;;;;1534041;76;763;-60
2021/07/06 03:12:40;;;;;;;;;;;24.40;47.60;;;;;;1540516;76;1120;-59
2021/07/06 03:14:42;;;;;;;;;;;24.40;47.70;;;;;;1546446;76;739;-59
2021/07/06 03:16:44;;;;;;;;;;;24.40;47.60;;;;;;1545944;76;789;-59
2021/07/06 03:18:46;;;;;;;;;;;24.40;47.60;;;;;;1549177;76;909;-59
2021/07/06 03:20:48;;;;;;;;;;;24.40;47.70;;;;;;1545094;76;784;-59
2021/07/06 03:22:50;;;;;;;;;;;24.40;47.70;;;;;;1540823;76;1211;-60
2021/07/06 03:24:52;;;;;;;;;;;24.40;47.80;;;;;;1549848;76;812;-60
2021/07/06 03:26:54;;;;;;;;;;;24.40;47.70;;;;;;1538369;76;673;-59
2021/07/06 03:28:56;;;;;;;;;;;24.40;47.70;;;;;;1537005;76;1905;-59
2021/07/06 03:30:58;;;;;;;;;;;24.40;47.80;;;;;;1535276;76;730;-59
2021/07/06 03:33:00;;;;;;;;;;;24.40;47.80;;;;;;1537591;76;1085;-60
2021/07/06 03:35:03;;;;;;;;;;;24.40;47.80;;;;;;1533687;76;758;-60
2021/07/06 03:37:07;;;;;;;;;;;24.40;47.80;;;;;;1533369;76;772;-59
2021/07/06 03:39:09;;;;;;;;;;;24.40;47.70;;;;;;1533279;76;1118;-61
2021/07/06 03:41:10;;;;;;;;;;;24.40;47.70;;;;;;1534915;76;1099;-60
2021/07/06 03:43:12;;;;;;;;;;;24.40;47.70;;;;;;1536274;76;656;-59
2021/07/06 03:45:14;;;;;;;;;;;24.40;47.80;;;;;;1536673;76;668;-60
2021/07/06 03:47:16;;;;;;;;;;;24.40;47.80;;;;;;1539380;76;782;-59
2021/07/06 03:49:18;;;;;;;;;;;24.40;47.70;;;;;;1543489;76;1948;-60
2021/07/06 03:51:20;;;;;;;;;;;24.40;47.80;;;;;;1545191;76;1154;-60
2021/07/06 03:53:22;;;;;;;;;;;24.40;47.80;;;;;;1539708;76;782;-60
2021/07/06 03:55:24;;;;;;;;;;;24.40;47.70;;;;;;1540303;76;745;-60
2021/07/06 03:57:29;;;;;;;;;;;24.40;47.80;;;;;;1537915;76;794;-59
2021/07/06 03:59:31;;;;;;;;;;;24.40;47.80;;;;;;1538156;76;749;-60
2021/07/06 04:01:34;;;;;;;;;;;24.40;47.90;;;;;;1538164;76;1145;-61
2021/07/06 04:03:36;;;;;;;;;;;24.40;47.90;;;;;;1537006;76;1257;-60
2021/07/06 04:05:38;;;;;;;;;;;24.40;47.90;;;;;;1538616;76;809;-59
2021/07/06 04:07:40;;;;;;;;;;;24.40;47.90;;;;;;1540544;76;1949;-60
2021/07/06 04:09:42;;;;;;;;;;;24.40;47.90;;;;;;1541731;76;716;-59
2021/07/06 04:11:43;;;;;;;;;;;24.40;47.90;;;;;;1542781;76;1128;-59
2021/07/06 04:13:45;;;;;;;;;;;24.40;47.90;;;;;;1541597;76;750;-60
2021/07/06 04:15:47;;;;;;;;;;;24.40;48.00;;;;;;1533518;76;756;-59
2021/07/06 04:17:49;;;;;;;;;;;24.40;48.10;;;;;;1538370;76;788;-59
2021/07/06 04:19:51;;;;;;;;;;;24.40;48.10;;;;;;1541314;76;796;-60
2021/07/06 04:21:53;;;;;;;;;;;24.40;48.10;;;;;;1535076;76;1141;-60
2021/07/06 04:23:55;;;;;;;;;;;24.40;48.00;;;;;;1542545;76;775;-59
2021/07/06 04:25:57;;;;;;;;;;;24.40;48.00;;;;;;1531668;76;697;-59
2021/07/06 04:27:59;;;;;;;;;;;24.40;48.00;;;;;;1539474;76;1941;-59
2021/07/06 04:30:00;;;;;;;;;;;24.40;48.10;;;;;;1543761;76;774;-59
2021/07/06 04:32:02;;;;;;;;;;;24.40;48.10;;;;;;1539736;76;1094;-60
2021/07/06 04:34:04;;;;;;;;;;;24.40;48.10;;;;;;1542024;76;806;-59
2021/07/06 04:36:06;;;;;;;;;;;24.40;48.10;;;;;;1538241;76;943;-61
2021/07/06 04:38:08;;;;;;;;;;;24.40;48.20;;;;;;1541520;76;667;-59
2021/07/06 04:40:10;;;;;;;;;;;24.40;48.20;;;;;;1537454;76;722;-61
2021/07/06 04:42:15;;;;;;;;;;;24.40;48.20;;;;;;1539898;76;1077;-59
2021/07/06 04:44:16;;;;;;;;;;;24.40;48.20;;;;;;1547637;76;1702;-59
2021/07/06 04:46:18;;;;;;;;;;;24.40;48.20;;;;;;1546182;76;873;-58
2021/07/06 04:48:20;;;;;;;;;;;24.50;48.50;;;;;;1546869;76;1953;-58
2021/07/06 04:50:22;;;;;;;;;;;24.50;48.50;;;;;;1534080;76;800;-60
2021/07/06 04:52:23;;;;;;;;;;;24.40;48.50;;;;;;1540635;76;1148;-60
2021/07/06 04:54:25;;;;;;;;;;;24.40;48.60;;;;;;1542286;76;762;-59
2021/07/06 04:56:28;;;;;;;;;;;24.40;48.60;;;;;;1542352;76;830;-60
2021/07/06 04:58:30;;;;;;;;;;;24.50;48.70;;;;;;1542787;76;721;-60
2021/07/06 05:00:32;;;;;;;;;;;24.40;48.70;;;;;;1542249;76;790;-60
2021/07/06 05:02:34;;;;;;;;;;;24.40;48.60;;;;;;1539821;76;1179;-60
2021/07/06 05:04:36;;;;;;;;;;;24.50;48.70;;;;;;1554473;76;740;-60
2021/07/06 05:06:37;;;;;;;;;;;24.50;48.90;;;;;;1549851;76;800;-60
2021/07/06 05:08:39;;;;;;;;;;;24.50;48.80;;;;;;1542489;76;1939;-60
2021/07/06 05:10:41;;;;;;;;;;;24.50;48.90;;;;;;1546291;76;724;-60
2021/07/06 05:12:43;;;;;;;;;;;24.40;48.80;;;;;;1542269;76;1139;-60
2021/07/06 05:14:45;;;;;;;;;;;24.50;48.90;;;;;;1534649;76;780;-60
2021/07/06 05:16:47;;;;;;;;;;;24.50;49.00;;;;;;1540550;76;737;-60
2021/07/06 05:18:49;;;;;;;;;;;24.50;49.00;;;;;;1537215;76;766;-60
2021/07/06 05:20:51;;;;;;;;;;;24.50;49.10;;;;;;1539144;76;835;-61
2021/07/06 05:22:53;;;;;;;;;;;24.40;49.10;;;;;;1545545;76;1113;-61
2021/07/06 05:24:55;;;;;;;;;;;24.50;49.20;;;;;;1544536;76;721;-61
2021/07/06 05:26:56;;;;;;;;;;;24.50;49.20;;;;;;1552413;76;790;-61
2021/07/06 05:28:58;;;;;;;;;;;24.50;49.20;;;;;;1544232;76;1962;-61
2021/07/06 05:31:03;;;;;;;;;;;24.50;49.30;;;;;;1551948;76;799;-60
2021/07/06 05:33:04;;;;;;;;;;;24.50;49.30;;;;;;1542610;76;1638;-60
2021/07/06 05:35:08;;;;;;;;;;;24.50;49.40;;;;;;1542299;75;771;-60
2021/07/06 05:37:10;;;;;;;;;;;24.50;49.30;;;;;;1539607;76;698;-60
2021/07/06 05:39:12;;;;;;;;;;;24.50;49.30;;;;;;1538128;76;746;-59
2021/07/06 05:41:14;;;;;;;;;;;24.60;49.30;;;;;;1550254;76;1098;-60
2021/07/06 05:43:16;;;;;;;;;;;24.60;49.40;;;;;;1544814;76;767;-60
2021/07/06 05:45:17;;;;;;;;;;;24.60;49.50;;;;;;1532294;76;749;-61
2021/07/06 05:47:19;;;;;;;;;;;24.60;49.50;;;;;;1540854;76;809;-59
2021/07/06 05:49:21;;;;;;;;;;;24.70;49.70;;;;;;1547688;76;1947;-59
2021/07/06 05:51:23;;;;;;;;;;;24.70;49.40;;;;;;1531246;76;1180;-59
2021/07/06 05:53:25;;;;;;;;;;;24.60;49.20;;;;;;1540370;76;758;-59
2021/07/06 05:55:27;;;;;;;;;;;24.60;49.20;;;;;;1541021;76;785;-60
2021/07/06 05:57:32;;;;;;;;;;;24.60;49.20;;;;;;1538758;76;798;-59
2021/07/06 05:59:33;;;;;;;;;;;24.50;49.20;;;;;;1547567;76;700;-60
2021/07/06 06:01:35;;;;;;;;;;;24.60;49.20;;;;;;1538695;76;1191;-60
2021/07/06 06:03:37;;;;;;;;;;;24.60;49.20;;;;;;1538393;76;677;-62
2021/07/06 06:05:39;;;;;;;;;;;24.50;49.20;;;;;;1527259;76;796;-59
2021/07/06 06:07:41;;;;;;;;;;;24.50;49.20;;;;;;1537066;76;812;-59
2021/07/06 06:09:43;;;;;;;;;;;24.50;49.20;;;;;;1539686;76;1927;-59
2021/07/06 06:11:45;;;;;;;;;;;24.60;49.20;;;;;;1540367;76;1134;-59
2021/07/06 06:13:47;;;;;;;;;;;24.50;49.30;;;;;;1534663;76;1051;-61
2021/07/06 06:15:48;;;;;;;;;;;24.50;49.20;;;;;;1534813;76;813;-60
2021/07/06 06:17:50;;;;;;;;;;;24.60;49.30;;;;;;1538495;76;716;-59
2021/07/06 06:19:52;;;;;;;;;;;24.60;49.30;;;;;;1540624;76;761;-59
2021/07/06 06:21:54;;;;;;;;;;;24.50;49.20;;;;;;1541384;76;1141;-60
2021/07/06 06:23:56;;;;;;;;;;;24.60;49.20;;;;;;1546735;76;694;-60
2021/07/06 06:25:58;;;;;;;;;;;24.50;49.20;;;;;;1542512;76;733;-59
2021/07/06 06:28:00;;;;;;;;;;;24.50;49.20;;;;;;1546507;76;805;-61
2021/07/06 06:30:03;;;;;;;;;;;24.60;49.20;;;;;;1540611;76;1929;-60
2021/07/06 06:32:05;;;;;;;;;;;24.60;49.20;;;;;;1538407;76;1164;-60
2021/07/06 06:34:07;;;;;;;;;;;24.50;49.20;;;;;;1544188;76;980;-59
2021/07/06 06:36:10;;;;;;;;;;;24.50;49.20;;;;;;1539495;76;698;-60
2021/07/06 06:38:12;;;;;;;;;;;24.60;49.20;;;;;;1537804;76;747;-60
2021/07/06 06:40:14;;;;;;;;;;;24.50;49.30;;;;;;1538072;76;789;-59
2021/07/06 06:42:15;;;;;;;;;;;24.60;49.20;;;;;;1543290;76;1150;-59
2021/07/06 06:44:17;;;;;;;;;;;24.50;49.30;;;;;;1544604;76;643;-59
2021/07/06 06:46:23;;;;;;;;;;;24.50;49.40;;;;;;1539212;76;795;-59
2021/07/06 06:48:25;;;;;;;;;;;24.60;49.30;;;;;;1527051;72;215213;-65
2021/07/06 06:50:27;;;;;;;;;;;24.50;49.20;;;;;;1494592;77;1949;-63
2021/07/06 06:52:29;;;;;;;;;;;24.60;49.20;;;;;;1511572;77;704;-64
2021/07/06 06:54:32;;;;;;;;;;;24.70;49.40;;;;;;1501628;77;705;-64
2021/07/06 06:56:36;;;;;;;;;;;24.80;49.40;;;;;;1501268;77;720;-66
2021/07/06 06:58:37;;;;;;;;;;;24.80;49.30;;;;;;1526867;76;1235;-65
2021/07/06 07:00:39;;;;;;;;;;;24.80;49.30;;;;;;1536353;76;654;-66
2021/07/06 07:02:43;;;;;;;;;;;24.70;49.30;;;;;;1533047;76;703;-65
2021/07/06 07:04:45;;;;;;;;;;;24.80;49.40;;;;;;1542427;74;1648;-64
2021/07/06 07:06:46;;;;;;;;;;;24.90;49.40;;;;;;1535329;76;725;-65
2021/07/06 07:08:48;;;;;;;;;;;24.80;49.70;;;;;;1534116;76;1941;-65
2021/07/06 07:10:50;;;;;;;;;;;24.90;49.70;;;;;;1533678;76;730;-65
2021/07/06 07:12:56;;;;;;;;;;;25.00;49.60;;;;;;1535248;76;735;-63
2021/07/06 07:14:58;;;;;;;;;;;25.00;49.50;;;;;;1531851;76;654;-66
2021/07/06 07:17:00;;;;;;;;;;;25.00;49.50;;;;;;1535119;76;795;-65
2021/07/06 07:19:02;;;;;;;;;;;25.10;49.40;;;;;;1535370;76;1143;-63
2021/07/06 07:21:04;;;;;;;;;;;25.20;49.30;;;;;;1532501;76;739;-63
2021/07/06 07:23:06;;;;;;;;;;;25.20;49.40;;;;;;1532168;76;699;-64
2021/07/06 07:25:08;;;;;;;;;;;25.20;49.40;;;;;;1523816;76;817;-66
2021/07/06 07:27:10;;;;;;;;;;;25.30;49.20;;;;;;1525835;76;716;-66
2021/07/06 07:29:11;;;;;;;;;;;25.40;49.00;;;;;;1531109;76;1944;-68
2021/07/06 07:31:13;;;;;;;;;;;25.40;48.90;;;;;;1535295;76;801;-65
2021/07/06 07:33:15;;;;;;;;;;;25.50;48.60;;;;;;1534223;76;731;-65
2021/07/06 07:35:18;;;;;;;;;;;25.50;48.40;;;;;;1527488;76;790;-64
2021/07/06 07:37:20;;;;;;;;;;;25.50;48.40;;;;;;1516329;76;1100;-65
2021/07/06 07:39:22;;;;;;;;;;;25.50;48.60;;;;;;1533443;76;704;-66
2021/07/06 07:41:24;;;;;;;;;;;25.50;48.50;;;;;;1526723;76;699;-65
2021/07/06 07:43:26;;;;;;;;;;;25.60;48.40;;;;;;1531775;76;801;-66
2021/07/06 07:45:27;;;;;;;;;;;25.60;48.00;;;;;;1524006;76;718;-65
2021/07/06 07:47:29;;;;;;;;;;;25.70;47.90;;;;;;1535372;76;1142;-65
2021/07/06 07:49:31;;;;;;;;;;;25.70;48.10;;;;;;1526920;76;1971;-65
2021/07/06 07:51:33;;;;;;;;;;;25.70;47.90;;;;;;1539477;76;742;-63
2021/07/06 07:53:35;;;;;;;;;;;25.80;47.80;;;;;;1540524;76;783;-65
2021/07/06 07:55:37;;;;;;;;;;;25.70;47.70;;;;;;1545719;76;746;-65
2021/07/06 07:57:39;;;;;;;;;;;25.80;47.70;;;;;;1536299;76;1155;-64
2021/07/06 07:59:41;;;;;;;;;;;25.80;47.70;;;;;;1534024;76;723;-64
2021/07/06 08:01:43;;;;;;;;;;;25.90;47.70;;;;;;1523299;76;712;-62
2021/07/06 08:03:44;;;;;;;;;;;25.90;47.60;;;;;;1523910;76;801;-64
2021/07/06 08:05:46;;;;;;;;;;;25.90;47.70;;;;;;1517566;76;739;-65
2021/07/06 08:07:48;;;;;;;;;;;25.90;47.80;;;;;;1527722;76;1189;-63
2021/07/06 08:09:50;;;;;;;;;;;25.90;47.70;;;;;;1529316;76;1944;-63
2021/07/06 08:11:52;;;;;;;;;;;25.80;47.70;;;;;;1524496;76;747;-63
2021/07/06 08:13:54;;;;;;;;;;;25.90;47.80;;;;;;1514840;76;791;-64
2021/07/06 08:15:56;;;;;;;;;;;25.90;47.60;;;;;;1524526;76;770;-64
2021/07/06 08:17:58;;;;;;;;;;;25.90;47.20;;;;;;1519419;76;1116;-63
2021/07/06 08:19:59;;;;;;;;;;;25.90;47.30;;;;;;1540248;76;719;-62
2021/07/06 08:22:01;;;;;;;;;;;25.90;46.90;;;;;;1518170;76;1046;-63
2021/07/06 08:24:03;;;;;;;;;;;25.90;47.00;;;;;;1511423;76;799;-63
2021/07/06 08:26:05;;;;;;;;;;;26.00;47.40;;;;;;1522891;76;792;-64
2021/07/06 08:28:07;;;;;;;;;;;26.00;47.40;;;;;;1531937;76;1139;-64
2021/07/06 08:30:10;;;;;;;;;;;26.00;47.30;;;;;;1531104;76;1942;-63
2021/07/06 08:32:12;;;;;;;;;;;26.00;47.30;;;;;;1530970;75;830;-65
2021/07/06 08:34:14;;;;;;;;;;;26.00;47.20;;;;;;1529955;76;721;-66
2021/07/06 08:36:15;;;;;;;;;;;26.00;47.20;;;;;;1532643;76;708;-63
2021/07/06 08:38:17;;;;;;;;;;;26.00;47.20;;;;;;1527343;76;1096;-64
2021/07/06 08:40:19;;;;;;;;;;;25.90;46.40;;;;;;1523986;76;757;-65
2021/07/06 08:42:21;;;;;;;;;;;26.00;46.90;;;;;;1526615;76;726;-64
2021/07/06 08:44:23;;;;;;;;;;;26.00;46.90;;;;;;1538123;76;705;-64
2021/07/06 08:46:25;;;;;;;;;;;26.00;47.00;;;;;;1538788;76;721;-63
2021/07/06 08:48:28;;;;;;;;;;;26.00;47.00;;;;;;1533207;76;1134;-60
2021/07/06 08:50:30;;;;;;;;;;;26.00;47.00;;;;;;1531435;76;1930;-64
2021/07/06 08:52:32;;;;;;;;;;;26.00;46.90;;;;;;1533672;76;840;-60
2021/07/06 08:54:33;;;;;;;;;;;26.00;46.90;;;;;;1530579;76;770;-62
2021/07/06 08:56:35;;;;;;;;;;;26.00;47.30;;;;;;1533216;76;715;-62
2021/07/06 08:58:37;;;;;;;;;;;26.00;47.40;;;;;;1523790;76;1172;-65
2021/07/06 09:00:39;;;;;;;;;;;25.90;47.00;;;;;;1524512;76;779;-64
2021/07/06 09:02:41;;;;;;;;;;;26.00;47.50;;;;;;1536392;76;724;-64
2021/07/06 09:04:46;;;;;;;;;;;25.90;46.80;;;;;;1532122;76;734;-63
2021/07/06 09:06:57;;;;;;;;;;;26.00;47.30;;;;;;1536062;76;687;-63
2021/07/06 09:09:18;;;;;;;;;;;26.00;47.10;;;;;;1526851;76;1123;-65
2021/07/06 09:11:21;;;;;;;;;;;26.00;47.20;;;;;;1524787;76;1891;-66
2021/07/06 09:13:27;;;;;;;;;;;25.90;46.90;;;;;;1525881;76;711;-64
2021/07/06 09:15:34;;;;;;;;;;;25.90;46.90;;;;;;1525109;76;772;-63
2021/07/06 09:17:33;;;;;;;;;;;26.00;47.40;;;;;;1521056;76;1376;-64
2021/07/06 09:19:35;;;;;;;;;;;25.90;46.70;;;;;;1515329;76;778;-64
2021/07/06 09:21:37;;;;;;;;;;;26.00;47.20;;;;;;1528885;76;718;-64
2021/07/06 09:23:41;;;;;;;;;;;26.00;47.00;;;;;;1532398;76;1058;-64
2021/07/06 09:25:43;;;;;;;;;;;26.00;47.10;;;;;;1532404;76;1425;-65
2021/07/06 09:27:45;;;;;;;;;;;26.10;46.80;;;;;;1535115;75;1146;-66
2021/07/06 09:30:06;;;;;;;;;;;26.00;46.80;;;;;;1537463;76;1917;-64
2021/07/06 09:32:08;;;;;;;;;;;26.00;46.40;;;;;;1515631;76;740;-65
2021/07/06 09:34:10;;;;;;;;;;;26.00;46.50;;;;;;1528383;76;790;-66
2021/07/06 09:36:14;;;;;;;;;;;26.00;46.70;;;;;;1529888;76;743;-62
2021/07/06 09:38:16;;;;;;;;;;;26.00;46.70;;;;;;1536023;76;1147;-62
2021/07/06 09:40:21;;;;;;;;;;;26.00;46.60;;;;;;1523162;76;799;-64
2021/07/06 09:42:24;;;;;;;;;;;26.00;46.70;;;;;;1544862;76;618;-62
2021/07/06 09:44:33;;;;;;;;;;;26.00;46.80;;;;;;1529784;76;748;-65
2021/07/06 09:46:37;;;;;;;;;;;26.00;46.60;;;;;;1534237;76;1493;-64
2021/07/06 09:48:43;;;;;;;;;;;26.00;46.70;;;;;;1530679;76;1781;-63
2021/07/06 09:50:43;;;;;;;;;;;26.00;46.60;;;;;;1528853;76;1935;-64
2021/07/06 09:52:45;;;;;;;;;;;26.00;46.60;;;;;;1516626;77;735;-64
2021/07/06 09:54:48;;;;;;;;;;;26.10;46.50;;;;;;1523954;76;681;-65
2021/07/06 09:56:51;;;;;;;;;;;26.10;46.70;;;;;;1540883;75;755;-64
2021/07/06 09:58:57;;;;;;;;;;;26.00;46.80;;;;;;1533595;76;1202;-65
2021/07/06 10:01:00;;;;;;;;;;;26.00;46.80;;;;;;1533704;76;711;-64
2021/07/06 10:03:03;;;;;;;;;;;26.00;46.90;;;;;;1533256;76;1965;-64
2021/07/06 10:05:08;;;;;;;;;;;26.10;46.80;;;;;;1529333;76;625;-64
2021/07/06 10:07:10;;;;;;;;;;;26.10;46.90;;;;;;1533246;76;1655;-63
2021/07/06 10:09:12;;;;;;;;;;;26.00;46.90;;;;;;1538135;76;1148;-63
2021/07/06 10:11:14;;;;;;;;;;;26.00;47.20;;;;;;1539489;76;1924;-65
2021/07/06 10:13:16;;;;;;;;;;;25.90;46.70;;;;;;1548746;76;818;-64
2021/07/06 10:15:18;;;;;;;;;;;25.90;46.90;;;;;;1528136;76;839;-65
2021/07/06 10:17:21;;;;;;;;;;;26.00;47.60;;;;;;1527236;76;1531;-65
2021/07/06 10:19:23;;;;;;;;;;;25.90;47.10;;;;;;1539058;76;707;-64
2021/07/06 10:21:26;;;;;;;;;;;26.00;47.80;;;;;;1538918;76;657;-64
2021/07/06 10:23:27;;;;;;;;;;;26.00;48.00;;;;;;1538025;76;579;-66
2021/07/06 10:25:31;;;;;;;;;;;25.90;47.50;;;;;;1534029;76;776;-65
2021/07/06 10:27:34;;;;;;;;;;;25.90;47.60;;;;;;1534977;76;1163;-65
2021/07/06 10:29:36;;;;;;;;;;;26.00;48.00;;;;;;1532813;76;777;-65
2021/07/06 10:31:39;;;;;;;;;;;26.00;47.80;;;;;;1526524;76;1931;-65
2021/07/06 10:33:42;;;;;;;;;;;26.00;47.80;;;;;;1534448;76;1080;-68
2021/07/06 10:35:47;;;;;;;;;;;26.00;47.30;;;;;;1538265;76;751;-64
2021/07/06 10:37:48;;;;;;;;;;;26.00;47.60;;;;;;1535201;76;1162;-67
2021/07/06 10:39:53;;;;;;;;;;;26.00;47.70;;;;;;1535946;76;793;-66
2021/07/06 10:41:54;;;;;;;;;;;26.00;47.60;;;;;;1538070;76;1611;-65
2021/07/06 10:43:56;;;;;;;;;;;26.00;47.50;;;;;;1538312;76;701;-64
2021/07/06 10:46:18;;;;;;;;;;;26.10;47.30;;;;;;1511772;77;978;-66
2021/07/06 10:48:19;;;;;;;;;;;26.10;47.20;;;;;;1508503;77;1136;-66
2021/07/06 10:50:34;;;;;;;;;;;26.10;47.10;;;;;;1546662;75;1923;-66
2021/07/06 10:52:36;;;;;;;;;;;26.10;47.10;;;;;;1553464;75;754;-66
2021/07/06 10:54:38;;;;;;;;;;;26.10;47.20;;;;;;1554175;75;749;-65
2021/07/06 10:56:45;;;;;;;;;;;26.10;47.20;;;;;;1555961;75;739;-65
2021/07/06 10:58:48;;;;;;;;;;;26.10;47.10;;;;;;1551060;75;1676;-66
2021/07/06 11:00:50;;;;;;;;;;;26.00;47.10;;;;;;1555194;75;807;-70
2021/07/06 11:02:53;;;;;;;;;;;26.00;47.10;;;;;;1555625;75;714;-68
2021/07/06 11:04:56;;;;;;;;;;;26.00;47.50;;;;;;1546904;75;1127;-67
2021/07/06 11:06:58;;;;;;;;;;;26.00;47.30;;;;;;1556171;75;770;-72
2021/07/06 11:09:00;;;;;;;;;;;26.10;47.20;;;;;;1557573;75;1217;-68
2021/07/06 11:11:02;;;;;;;;;;;26.00;47.10;;;;;;1554487;75;1938;-69
2021/07/06 11:13:11;;;;;;;;;;;26.10;47.30;;;;;;1546870;75;714;-69
2021/07/06 11:15:19;;;;;;;;;;;26.10;47.60;;;;;;1558085;75;1488;-70
2021/07/06 11:17:37;;;;;;;;;;;26.10;47.60;;;;;;1555229;75;1596;-69
2021/07/06 11:19:40;;;;;;;;;;;26.00;47.90;;;;;;1547615;75;718;-68
2021/07/06 11:21:42;;;;;;;;;;;26.00;48.20;;;;;;1557902;75;831;-68
2021/07/06 11:23:43;;;;;;;;;;;26.00;48.30;;;;;;1553730;75;771;-66
2021/07/06 11:25:46;;;;;;;;;;;26.00;48.20;;;;;;1554028;75;786;-67
2021/07/06 11:28:06;;;;;;;;;;;26.00;48.20;;;;;;1556770;75;1146;-66
2021/07/06 11:30:25;;;;;;;;;;;26.00;48.30;;;;;;1556210;75;718;-67
2021/07/06 11:32:27;;;;;;;;;;;26.00;48.40;;;;;;1552643;75;766;-65
2021/07/06 11:34:31;;;;;;;;;;;26.00;48.50;;;;;;1556158;75;699;-67
2021/07/06 11:36:32;;;;;;;;;;;26.00;48.40;;;;;;1558080;75;1656;-66
2021/07/06 11:38:36;;;;;;;;;;;26.00;48.40;;;;;;1512349;77;1133;-69
2021/07/06 11:40:38;;;;;;;;;;;26.10;48.60;;;;;;1512209;77;773;-66
2021/07/06 11:42:41;;;;;;;;;;;26.10;48.80;;;;;;1514681;77;735;-68
2021/07/06 11:44:43;;;;;;;;;;;26.00;48.60;;;;;;1508058;76;718;-69
2021/07/06 11:46:45;;;;;;;;;;;26.00;48.60;;;;;;1537925;76;739;-69
2021/07/06 11:48:54;;;;;;;;;;;26.00;48.80;;;;;;1532197;76;1130;-68
2021/07/06 11:50:53;;;;;;;;;;;26.00;48.90;;;;;;1538138;76;1933;-72
2021/07/06 11:52:55;;;;;;;;;;;26.00;48.60;;;;;;1536287;76;700;-69
2021/07/06 11:54:58;;;;;;;;;;;26.00;48.60;;;;;;1526675;76;813;-69
2021/07/06 11:57:03;;;;;;;;;;;25.90;47.70;;;;;;1534236;76;726;-65
2021/07/06 11:59:12;;;;;;;;;;;26.00;48.10;;;;;;1523917;76;1163;-68
2021/07/06 12:01:13;;;;;;;;;;;26.00;48.10;;;;;;1523690;76;736;-68
2021/07/06 12:03:23;;;;;;;;;;;26.00;47.40;;;;;;1534357;76;794;-65
2021/07/06 12:05:25;;;;;;;;;;;26.10;47.70;;;;;;1540106;76;701;-67
2021/07/06 12:07:27;;;;;;;;;;;26.10;47.50;;;;;;1539488;76;1093;-67
2021/07/06 12:09:29;;;;;;;;;;;26.10;47.30;;;;;;1531871;76;800;-69
2021/07/06 12:11:30;;;;;;;;;;;26.20;47.10;;;;;;1526712;76;1936;-68